Hauptseite
METAR-TAF:

METAR-TAF

Flughäfen :

Flughafen Bergamo

Bergamo, Italien

Breite: 45-40N, Länge: 009-42E, Höhe: 238 m

Beobachtung

Neuester Wetterbericht von vor 33 Minuten, um 04:50 UTC
Wind 4 kt aus Nord/Nordost
Temperatur 22°C
Luftfeuchtigkeit 83%
Luftdruck 1016 hPa
Sichtweite 10 km oder mehr

METAR: LIME 100450Z AUTO 02004KT 9999 NCD 22/19 Q1016

Zeit: 07:23 (05:23 UTC)

Prognose

Neuester Wetterbericht von vor 6 Stunden und 23 Minuten, um 23:00 UTC
Gültige Prognose vom 10 um 00 UTC bis 10 um 24 UTC
Wind 6 kt aus unterschiedlichen Richtungen
Sichtweite 10 km oder mehr
Leicht bewölkt in der Höhe von 4000 ft

TAF: LIME 092300Z 1000/1024 VRB06KT 9999 FEW040

Wetterbeobachtungen und Prognosen von mehr als 4000 Flughäfen (METAR und TAF Bericht).

Die verfügbaren Stationen werden durch gelbe und rote Markierungen auf der Karte dargestellt.

Führen Sie die Maus auf sie, um den Namen der Station zu sehen.

Darauf klicken, um die Beobachtung von Wetterbeobachtungen und Prognosen zu sehen.

Um die Karte zu ändern : klicken Sie auf den grünen Tasten mit einem schwarzen Kreuz Zum Vergrößern, auf den grünen Button mit einem Gedankenstrich zu verkleinern, oder auf die grünen Pfeile für benachbarte Karten.


METAR-TAF: